createdAt,value
2024-04-16T00:00:06.246Z,29.7010
2024-04-16T00:00:17.384Z,29.7180
2024-04-16T00:00:28.429Z,29.7240
2024-04-16T00:00:39.444Z,29.7180
2024-04-16T00:00:50.494Z,29.7350
2024-04-16T00:01:01.609Z,29.7460
2024-04-16T00:01:12.765Z,29.7620
2024-04-16T00:01:23.939Z,29.7730
2024-04-16T00:01:35.096Z,29.7890
2024-04-16T00:01:46.246Z,29.7960
2024-04-16T00:01:57.513Z,29.8010
2024-04-16T00:02:08.609Z,29.8120
2024-04-16T00:02:19.959Z,29.8230
2024-04-16T00:02:30.992Z,29.8230
2024-04-16T00:02:42.057Z,29.8170
2024-04-16T00:02:53.112Z,29.8060
2024-04-16T00:03:04.175Z,29.8230
2024-04-16T00:03:15.230Z,29.8120
2024-04-16T00:03:26.300Z,29.8230
2024-04-16T00:03:37.360Z,29.8170
2024-04-16T00:03:48.423Z,29.8170
2024-04-16T00:03:59.605Z,29.8390
2024-04-16T00:04:10.857Z,29.8390
2024-04-16T00:04:21.961Z,29.8390
2024-04-16T00:04:33.160Z,29.8550
2024-04-16T00:04:44.322Z,29.8610
2024-04-16T00:04:55.438Z,29.8660
2024-04-16T00:05:06.574Z,29.8660
2024-04-16T00:05:17.760Z,29.8630
2024-04-16T00:05:28.849Z,29.8690
2024-04-16T00:05:39.890Z,29.8780
2024-04-16T00:05:50.921Z,29.8780
2024-04-16T00:06:01.991Z,29.8780
2024-04-16T00:06:13.044Z,29.8780
2024-04-16T00:06:24.102Z,29.9000
2024-04-16T00:06:35.121Z,29.9000
2024-04-16T00:06:46.178Z,29.9000
2024-04-16T00:06:57.338Z,29.9000
2024-04-16T00:07:08.420Z,29.9000
2024-04-16T00:07:19.533Z,29.9000
2024-04-16T00:07:30.668Z,29.9110
2024-04-16T00:07:41.776Z,29.9220
2024-04-16T00:07:52.820Z,29.9220
2024-04-16T00:08:03.908Z,29.9270
2024-04-16T00:08:14.965Z,29.9270
2024-04-16T00:08:26.010Z,29.9380
2024-04-16T00:08:37.054Z,29.9320
2024-04-16T00:08:48.114Z,29.9270
2024-04-16T00:08:59.164Z,29.9380
2024-04-16T00:09:10.217Z,29.9500
2024-04-16T00:09:21.238Z,29.9460
2024-04-16T00:09:32.295Z,29.9460
2024-04-16T00:09:43.348Z,29.9240
2024-04-16T00:09:54.663Z,29.9350
2024-04-16T00:10:05.759Z,29.9350
2024-04-16T00:10:16.976Z,29.9410
2024-04-16T00:10:28.100Z,29.9350
2024-04-16T00:10:39.379Z,29.9680
2024-04-16T00:10:50.544Z,29.9680
2024-04-16T00:11:01.668Z,29.9820
2024-04-16T00:11:12.724Z,29.9550
2024-04-16T00:11:23.787Z,29.9770
2024-04-16T00:11:34.840Z,29.9930
2024-04-16T00:11:45.907Z,29.9720
2024-04-16T00:11:56.930Z,29.9880
2024-04-16T00:12:07.982Z,29.9820
2024-04-16T00:12:19.046Z,29.9820
2024-04-16T00:12:30.113Z,29.9820
2024-04-16T00:12:41.155Z,29.9770
2024-04-16T00:12:52.200Z,29.9820
2024-04-16T00:13:03.259Z,29.9770
2024-04-16T00:13:14.300Z,29.9880
2024-04-16T00:13:25.361Z,29.9880
2024-04-16T00:13:36.468Z,29.9720
2024-04-16T00:13:47.535Z,29.9880
2024-04-16T00:13:58.553Z,29.9990
2024-04-16T00:14:09.648Z,29.9990
2024-04-16T00:14:20.686Z,29.9990
2024-04-16T00:14:31.697Z,29.9880
2024-04-16T00:14:42.748Z,29.9930
2024-04-16T00:14:53.779Z,29.9990
2024-04-16T00:15:04.853Z,29.9990
2024-04-16T00:15:15.879Z,29.9990
2024-04-16T00:15:27.100Z,30.0040
2024-04-16T00:15:38.116Z,29.9990
2024-04-16T00:15:49.172Z,29.9930
2024-04-16T00:16:00.312Z,29.9950
2024-04-16T00:16:11.443Z,30.0010
2024-04-16T00:16:22.552Z,30.0070
2024-04-16T00:16:33.746Z,30.0070
2024-04-16T00:16:44.876Z,29.9950
2024-04-16T00:16:56.070Z,29.9840
2024-04-16T00:17:07.324Z,29.9680
2024-04-16T00:17:18.371Z,29.9870
2024-04-16T00:17:29.603Z,29.9890
2024-04-16T00:17:40.771Z,29.9890
2024-04-16T00:17:51.839Z,29.9680
2024-04-16T00:18:02.920Z,29.9570
2024-04-16T00:18:14.024Z,29.9680
2024-04-16T00:18:25.106Z,29.9570
2024-04-16T00:18:36.153Z,29.9510
2024-04-16T00:18:47.217Z,29.9680
2024-04-16T00:18:58.264Z,29.9510
2024-04-16T00:19:09.351Z,29.9460
2024-04-16T00:19:20.447Z,29.9570
2024-04-16T00:19:31.621Z,29.9570
2024-04-16T00:19:42.723Z,29.9570
2024-04-16T00:19:53.796Z,29.9570
2024-04-16T00:20:04.872Z,29.9570
2024-04-16T00:20:15.921Z,29.9460
2024-04-16T00:20:26.974Z,29.9510
2024-04-16T00:20:38.047Z,29.9370
2024-04-16T00:20:49.065Z,29.9260
2024-04-16T00:21:00.115Z,29.9260
2024-04-16T00:21:11.137Z,29.9370
2024-04-16T00:21:22.167Z,29.9350
2024-04-16T00:21:33.212Z,29.9410
2024-04-16T00:21:44.259Z,29.9300
2024-04-16T00:21:55.308Z,29.9410
2024-04-16T00:22:06.390Z,29.9350
2024-04-16T00:22:17.518Z,29.9460
2024-04-16T00:22:28.533Z,29.9410
2024-04-16T00:22:39.608Z,29.9570
2024-04-16T00:22:50.650Z,29.9500
2024-04-16T00:23:01.726Z,29.9380
2024-04-16T00:23:12.751Z,29.9660
2024-04-16T00:23:24.002Z,29.9660
2024-04-16T00:23:35.034Z,29.9500
2024-04-16T00:23:46.082Z,29.9430
2024-04-16T00:23:57.158Z,29.9500
2024-04-16T00:24:08.211Z,29.9500
2024-04-16T00:24:19.251Z,29.9500
2024-04-16T00:24:30.264Z,29.9500
2024-04-16T00:24:41.334Z,29.9320
2024-04-16T00:24:52.369Z,29.9380
2024-04-16T00:25:03.424Z,29.9550
2024-04-16T00:25:14.590Z,29.9500
2024-04-16T00:25:25.674Z,29.9500
2024-04-16T00:25:36.757Z,29.9430
2024-04-16T00:25:47.846Z,29.9500
2024-04-16T00:25:58.965Z,29.9380
2024-04-16T00:26:10.009Z,29.9320
2024-04-16T00:26:21.062Z,29.9320
2024-04-16T00:26:32.104Z,29.9430
2024-04-16T00:26:43.140Z,29.9500
2024-04-16T00:26:54.178Z,29.9380
2024-04-16T00:27:05.246Z,29.9430
2024-04-16T00:27:16.296Z,29.9430
2024-04-16T00:27:27.314Z,29.9320
2024-04-16T00:27:38.349Z,29.9160
2024-04-16T00:27:49.411Z,29.9220
2024-04-16T00:28:00.513Z,29.9160
2024-04-16T00:28:11.626Z,29.9110
2024-04-16T00:28:22.690Z,29.9050
2024-04-16T00:28:33.777Z,29.9110
2024-04-16T00:28:44.822Z,29.9110
2024-04-16T00:28:55.877Z,29.8950
2024-04-16T00:29:06.951Z,29.9050
2024-04-16T00:29:18.015Z,29.9110
2024-04-16T00:29:29.084Z,29.9050
2024-04-16T00:29:40.119Z,29.9050
2024-04-16T00:29:51.229Z,29.8950
2024-04-16T00:30:02.281Z,29.9050
2024-04-16T00:30:13.305Z,29.9000
2024-04-16T00:30:24.330Z,29.9000
2024-04-16T00:30:35.381Z,29.9000
2024-04-16T00:30:46.411Z,29.9050
2024-04-16T00:30:57.467Z,29.8910
2024-04-16T00:31:08.501Z,29.8910
2024-04-16T00:31:19.613Z,29.8740
2024-04-16T00:31:30.832Z,29.8610
2024-04-16T00:31:41.984Z,29.8660
2024-04-16T00:31:53.164Z,29.8730
2024-04-16T00:32:04.254Z,29.8740
2024-04-16T00:32:15.348Z,29.8800
2024-04-16T00:32:26.475Z,29.8740
2024-04-16T00:32:37.656Z,29.8800
2024-04-16T00:32:48.748Z,29.8690
2024-04-16T00:32:59.886Z,29.8530
2024-04-16T00:33:11.008Z,29.8470
2024-04-16T00:33:22.045Z,29.8630
2024-04-16T00:33:33.219Z,29.8630
2024-04-16T00:33:44.252Z,29.8690
2024-04-16T00:33:55.325Z,29.8470
2024-04-16T00:34:06.467Z,29.8530
2024-04-16T00:34:17.559Z,29.8530
2024-04-16T00:34:28.633Z,29.8470
2024-04-16T00:34:39.830Z,29.8470
2024-04-16T00:34:50.871Z,29.8580
2024-04-16T00:35:01.935Z,29.8420
2024-04-16T00:35:12.991Z,29.8530
2024-04-16T00:35:24.016Z,29.8240
2024-04-16T00:35:35.064Z,29.8300
2024-04-16T00:35:46.067Z,29.8240
2024-04-16T00:35:57.122Z,29.8420
2024-04-16T00:36:08.161Z,29.8530
2024-04-16T00:36:19.219Z,29.8470
2024-04-16T00:36:30.262Z,29.8470
2024-04-16T00:36:41.321Z,29.8420
2024-04-16T00:36:52.375Z,29.8350
2024-04-16T00:37:03.438Z,29.8130
2024-04-16T00:37:14.486Z,29.8190
2024-04-16T00:37:25.555Z,29.8130
2024-04-16T00:37:36.629Z,29.7920
2024-04-16T00:37:47.680Z,29.7920
2024-04-16T00:37:58.716Z,29.7970
2024-04-16T00:38:09.761Z,29.8240
2024-04-16T00:38:20.791Z,29.8020
2024-04-16T00:38:31.835Z,29.8080
2024-04-16T00:38:42.872Z,29.8190
2024-04-16T00:38:53.987Z,29.8130
2024-04-16T00:39:05.011Z,29.8300
2024-04-16T00:39:16.063Z,29.8020
2024-04-16T00:39:27.091Z,29.8300
2024-04-16T00:39:38.140Z,29.7920
2024-04-16T00:39:49.193Z,29.8130
2024-04-16T00:40:00.613Z,29.8020
2024-04-16T00:40:11.779Z,29.8240
2024-04-16T00:40:22.867Z,29.8130
2024-04-16T00:40:34.022Z,29.8080
2024-04-16T00:40:45.111Z,29.8190
2024-04-16T00:40:56.121Z,29.7860
2024-04-16T00:41:07.188Z,29.7920
2024-04-16T00:41:18.202Z,29.8020
2024-04-16T00:41:29.256Z,29.7970
2024-04-16T00:41:40.320Z,29.8130
2024-04-16T00:41:51.377Z,29.8080
2024-04-16T00:42:02.390Z,29.7970
2024-04-16T00:42:13.527Z,29.7970
2024-04-16T00:42:24.556Z,29.7920
2024-04-16T00:42:35.616Z,29.7860
2024-04-16T00:42:46.652Z,29.7970
2024-04-16T00:42:57.728Z,29.8020
2024-04-16T00:43:08.817Z,29.7970
2024-04-16T00:43:19.975Z,29.7810
2024-04-16T00:43:31.107Z,29.7920
2024-04-16T00:43:42.172Z,29.7750
2024-04-16T00:43:53.223Z,29.7700
2024-04-16T00:44:04.258Z,29.7770
2024-04-16T00:44:15.316Z,29.7710
2024-04-16T00:44:26.379Z,29.7710
2024-04-16T00:44:37.410Z,29.7880
2024-04-16T00:44:48.471Z,29.7810
2024-04-16T00:44:59.542Z,29.7880
2024-04-16T00:45:10.567Z,29.7930
2024-04-16T00:45:21.617Z,29.7820
2024-04-16T00:45:32.671Z,29.7660
2024-04-16T00:45:43.718Z,29.7660
2024-04-16T00:45:54.793Z,29.7520
2024-04-16T00:46:05.819Z,29.7470
2024-04-16T00:46:16.930Z,29.7520
2024-04-16T00:46:28.071Z,29.7650
2024-04-16T00:46:40.528Z,29.7860
2024-04-16T00:46:52.975Z,29.8850
2024-04-16T00:47:04.079Z,29.8230
2024-04-16T00:47:15.312Z,29.8170
2024-04-16T00:47:26.410Z,29.8020
2024-04-16T00:47:37.678Z,29.7860
2024-04-16T00:47:48.860Z,29.7920
2024-04-16T00:48:00.089Z,29.7700
2024-04-16T00:48:11.212Z,29.7860
2024-04-16T00:48:22.268Z,29.7920
2024-04-16T00:48:33.350Z,29.7970
2024-04-16T00:48:44.390Z,29.7860
2024-04-16T00:48:55.439Z,29.8020
2024-04-16T00:49:06.523Z,29.8080
2024-04-16T00:49:17.569Z,29.7860
2024-04-16T00:49:28.616Z,29.7810
2024-04-16T00:49:39.678Z,29.8020
2024-04-16T00:49:50.697Z,29.7920
2024-04-16T00:50:01.711Z,29.7600
2024-04-16T00:50:12.757Z,29.7700
2024-04-16T00:50:23.815Z,29.7700
2024-04-16T00:50:34.862Z,29.7820
2024-04-16T00:50:45.921Z,29.7880
2024-04-16T00:50:56.994Z,29.7880
2024-04-16T00:51:07.996Z,29.7810
2024-04-16T00:51:19.048Z,29.7860
2024-04-16T00:51:30.105Z,29.7860
2024-04-16T00:51:41.175Z,29.7970
2024-04-16T00:51:52.241Z,29.7920
2024-04-16T00:52:03.326Z,29.8020
2024-04-16T00:52:14.424Z,29.7920
2024-04-16T00:52:25.541Z,29.7970
2024-04-16T00:52:36.738Z,29.8190
2024-04-16T00:52:47.817Z,29.8130
2024-04-16T00:52:58.870Z,29.8130
2024-04-16T00:53:09.947Z,29.8130
2024-04-16T00:53:20.962Z,29.8020
2024-04-16T00:53:32.003Z,29.8080
2024-04-16T00:53:43.151Z,29.8130
2024-04-16T00:53:54.154Z,29.8240
2024-04-16T00:54:05.202Z,29.8230
2024-04-16T00:54:16.252Z,29.8240
2024-04-16T00:54:27.308Z,29.8230
2024-04-16T00:54:38.424Z,29.8060
2024-04-16T00:54:49.475Z,29.8440
2024-04-16T00:55:00.683Z,29.8280
2024-04-16T00:55:11.804Z,29.8610
2024-04-16T00:55:22.845Z,29.8500
2024-04-16T00:55:34.082Z,29.8730
2024-04-16T00:55:45.161Z,29.8730
2024-04-16T00:55:56.181Z,29.8500
2024-04-16T00:56:07.237Z,29.8730
2024-04-16T00:56:18.283Z,29.8660
2024-04-16T00:56:29.320Z,29.8950
2024-04-16T00:56:40.417Z,29.8660
2024-04-16T00:56:51.461Z,29.8730
2024-04-16T00:57:02.525Z,29.8780
2024-04-16T00:57:13.535Z,29.8730
2024-04-16T00:57:24.601Z,29.8730
2024-04-16T00:57:35.639Z,29.8660
2024-04-16T00:57:46.689Z,29.8660
2024-04-16T00:57:57.743Z,29.8500
2024-04-16T00:58:08.842Z,29.8550
2024-04-16T00:58:19.845Z,29.8500
2024-04-16T00:58:31.033Z,29.8440
2024-04-16T00:58:42.140Z,29.8890
2024-04-16T00:58:53.183Z,29.8950
2024-04-16T00:59:04.224Z,29.8800
2024-04-16T00:59:15.238Z,29.8690
2024-04-16T00:59:26.273Z,29.8850
2024-04-16T00:59:37.311Z,29.8780
2024-04-16T00:59:48.360Z,29.8890
2024-04-16T00:59:59.399Z,29.8800
2024-04-16T01:00:10.464Z,29.8580
2024-04-16T01:00:21.487Z,29.8910
2024-04-16T01:00:32.540Z,29.8850
2024-04-16T01:00:43.614Z,29.8910
2024-04-16T01:00:54.725Z,29.8850
2024-04-16T01:01:05.931Z,29.8690
2024-04-16T01:01:16.997Z,29.8740
2024-04-16T01:01:28.143Z,29.8690
2024-04-16T01:01:39.239Z,29.8850
2024-04-16T01:01:50.298Z,29.8800
2024-04-16T01:02:01.390Z,29.8850
2024-04-16T01:02:12.428Z,29.8740
2024-04-16T01:02:23.479Z,29.8740
2024-04-16T01:02:34.522Z,29.8800
2024-04-16T01:02:45.604Z,29.8850
2024-04-16T01:02:56.662Z,29.8850
2024-04-16T01:03:07.760Z,29.8800
2024-04-16T01:03:18.970Z,29.9180
2024-04-16T01:03:30.094Z,29.9120
2024-04-16T01:03:41.177Z,29.9010
2024-04-16T01:03:52.321Z,29.9010
2024-04-16T01:04:03.490Z,29.9180
2024-04-16T01:04:14.609Z,29.9240
2024-04-16T01:04:25.757Z,29.9010
2024-04-16T01:04:36.982Z,29.9180
2024-04-16T01:04:48.108Z,29.9120
2024-04-16T01:04:59.224Z,29.9240
2024-04-16T01:05:10.297Z,29.9120
2024-04-16T01:05:21.294Z,29.8960
2024-04-16T01:05:32.314Z,29.9240
2024-04-16T01:05:43.366Z,29.9150
2024-04-16T01:05:54.396Z,29.9310
2024-04-16T01:06:05.488Z,29.9420
2024-04-16T01:06:16.497Z,29.9310
2024-04-16T01:06:27.569Z,29.9150
2024-04-16T01:06:38.624Z,29.9090
2024-04-16T01:06:49.724Z,29.9180
2024-04-16T01:07:00.861Z,29.9240
2024-04-16T01:07:11.983Z,29.9350
2024-04-16T01:07:23.134Z,29.9300
2024-04-16T01:07:34.249Z,29.9300
2024-04-16T01:07:45.331Z,29.9240
2024-04-16T01:07:56.387Z,29.9350
2024-04-16T01:08:07.435Z,29.9470
2024-04-16T01:08:18.486Z,29.9420
2024-04-16T01:08:29.582Z,29.9470
2024-04-16T01:08:40.602Z,29.9530
2024-04-16T01:08:51.650Z,29.9530
2024-04-16T01:09:02.683Z,29.9350
2024-04-16T01:09:13.726Z,29.9410
2024-04-16T01:09:24.791Z,29.9370
2024-04-16T01:09:35.850Z,29.9470
2024-04-16T01:09:46.878Z,29.9370
2024-04-16T01:09:57.977Z,29.9420
2024-04-16T01:10:09.061Z,29.9580
2024-04-16T01:10:20.117Z,29.9580
2024-04-16T01:10:31.256Z,29.9530
2024-04-16T01:10:42.443Z,29.9580
2024-04-16T01:10:53.586Z,29.9530
2024-04-16T01:11:04.683Z,29.9690
2024-04-16T01:11:15.737Z,29.9580
2024-04-16T01:11:26.833Z,29.9610
2024-04-16T01:11:37.968Z,29.9670
2024-04-16T01:11:49.028Z,29.9640
2024-04-16T01:12:00.174Z,29.9640
2024-04-16T01:12:11.355Z,29.9690
2024-04-16T01:12:22.413Z,29.9870
2024-04-16T01:12:33.454Z,29.9870
2024-04-16T01:12:44.496Z,29.9870
2024-04-16T01:12:55.545Z,29.9840
2024-04-16T01:13:06.607Z,30.0010
2024-04-16T01:13:17.660Z,30.0010
2024-04-16T01:13:28.751Z,29.9950
2024-04-16T01:13:39.867Z,30.0070
2024-04-16T01:13:50.922Z,30.0140
2024-04-16T01:14:01.989Z,30.0140
2024-04-16T01:14:13.074Z,29.9980
2024-04-16T01:14:24.088Z,30.0030
2024-04-16T01:14:35.141Z,30.0090
2024-04-16T01:14:46.160Z,30.0270
2024-04-16T01:14:57.200Z,30.0100
2024-04-16T01:15:08.253Z,30.0040
2024-04-16T01:15:19.385Z,30.0150
2024-04-16T01:15:30.416Z,30.0210
2024-04-16T01:15:41.519Z,30.0210
2024-04-16T01:15:52.530Z,30.0190
2024-04-16T01:16:03.638Z,30.0250
2024-04-16T01:16:14.734Z,30.0250
2024-04-16T01:16:25.795Z,30.0140
2024-04-16T01:16:36.859Z,30.0300
2024-04-16T01:16:47.884Z,30.0300
2024-04-16T01:16:58.959Z,30.0410
2024-04-16T01:17:09.972Z,30.0410
2024-04-16T01:17:21.045Z,30.0560
2024-04-16T01:17:32.167Z,30.0610
2024-04-16T01:17:43.388Z,30.0900
2024-04-16T01:17:54.565Z,30.0900
2024-04-16T01:18:05.696Z,30.0950
2024-04-16T01:18:16.943Z,30.0950
2024-04-16T01:18:28.175Z,30.1060
2024-04-16T01:18:39.281Z,30.1110
2024-04-16T01:18:50.313Z,30.1110
2024-04-16T01:19:01.373Z,30.1060
2024-04-16T01:19:12.449Z,30.1110
2024-04-16T01:19:23.512Z,30.1170
2024-04-16T01:19:34.882Z,30.1110
2024-04-16T01:19:45.956Z,30.1280
2024-04-16T01:19:56.986Z,30.1280
2024-04-16T01:20:08.034Z,30.1280
2024-04-16T01:20:19.075Z,30.1170
2024-04-16T01:20:30.135Z,30.1330
2024-04-16T01:20:41.194Z,30.1440
2024-04-16T01:20:52.222Z,30.1330
2024-04-16T01:21:03.314Z,30.1410
2024-04-16T01:21:14.365Z,30.1470
2024-04-16T01:21:25.418Z,30.1470
2024-04-16T01:21:36.475Z,30.1440
2024-04-16T01:21:47.529Z,30.1440
2024-04-16T01:21:58.624Z,30.1440
2024-04-16T01:22:09.704Z,30.1620
2024-04-16T01:22:20.751Z,30.1670
2024-04-16T01:22:31.827Z,30.1620
2024-04-16T01:22:42.852Z,30.1720
2024-04-16T01:22:53.897Z,30.1720
2024-04-16T01:23:04.957Z,30.1670
2024-04-16T01:23:15.972Z,30.1890
2024-04-16T01:23:27.030Z,30.1890
2024-04-16T01:23:38.042Z,30.1890
2024-04-16T01:23:49.090Z,30.1830
2024-04-16T01:24:00.218Z,30.1850
2024-04-16T01:24:11.267Z,30.1740
2024-04-16T01:24:22.341Z,30.1890
2024-04-16T01:24:33.391Z,30.1890
2024-04-16T01:24:44.422Z,30.2000
2024-04-16T01:24:55.476Z,30.2070
2024-04-16T01:25:06.532Z,30.2190
2024-04-16T01:25:17.582Z,30.1960
2024-04-16T01:25:28.781Z,30.2050
2024-04-16T01:25:39.898Z,30.2160
2024-04-16T01:25:50.952Z,30.2270
2024-04-16T01:26:02.013Z,30.2320
2024-04-16T01:26:13.079Z,30.2390
2024-04-16T01:26:24.155Z,30.2270
2024-04-16T01:26:35.202Z,30.2270
2024-04-16T01:26:46.249Z,30.2440
2024-04-16T01:26:57.291Z,30.2270
2024-04-16T01:27:08.310Z,30.2270
2024-04-16T01:27:19.356Z,30.2390
2024-04-16T01:27:30.404Z,30.2390
2024-04-16T01:27:41.459Z,30.2390
2024-04-16T01:27:52.469Z,30.2460
2024-04-16T01:28:03.602Z,30.2570
2024-04-16T01:28:14.696Z,30.2350
2024-04-16T01:28:25.809Z,30.2440
2024-04-16T01:28:36.922Z,30.2440
2024-04-16T01:28:48.068Z,30.2390
2024-04-16T01:28:59.120Z,30.2550
2024-04-16T01:29:10.181Z,30.2660
2024-04-16T01:29:21.215Z,30.2660
2024-04-16T01:29:32.245Z,30.2610
2024-04-16T01:29:43.284Z,30.2660
2024-04-16T01:29:54.330Z,30.2660
2024-04-16T01:30:05.378Z,30.2660
2024-04-16T01:30:16.437Z,30.2770
2024-04-16T01:30:27.470Z,30.2710
2024-04-16T01:30:38.500Z,30.2710
2024-04-16T01:30:49.513Z,30.2880
2024-04-16T01:31:00.673Z,30.2880
2024-04-16T01:31:11.889Z,30.2930
2024-04-16T01:31:24.438Z,30.2820
2024-04-16T01:31:35.946Z,30.3540
2024-04-16T01:31:47.047Z,30.3150
2024-04-16T01:31:58.107Z,30.2990
2024-04-16T01:32:09.182Z,30.2880
2024-04-16T01:32:20.247Z,30.2990
2024-04-16T01:32:31.395Z,30.2930
2024-04-16T01:32:42.578Z,30.2820
2024-04-16T01:32:53.680Z,30.2880
2024-04-16T01:33:04.769Z,30.2930
2024-04-16T01:33:15.851Z,30.2930
2024-04-16T01:33:26.871Z,30.2880
2024-04-16T01:33:37.921Z,30.2930
2024-04-16T01:33:48.951Z,30.2880
2024-04-16T01:34:00.066Z,30.2930
2024-04-16T01:34:11.151Z,30.3150
2024-04-16T01:34:22.172Z,30.3100
2024-04-16T01:34:33.352Z,30.3040
2024-04-16T01:34:44.406Z,30.3040
2024-04-16T01:34:55.476Z,30.2930
2024-04-16T01:35:06.512Z,30.3040
2024-04-16T01:35:17.559Z,30.3100
2024-04-16T01:35:28.641Z,30.3040
2024-04-16T01:35:39.682Z,30.3040
2024-04-16T01:35:50.698Z,30.3100
2024-04-16T01:36:01.764Z,30.3040
2024-04-16T01:36:12.811Z,30.3150
2024-04-16T01:36:23.870Z,30.3100
2024-04-16T01:36:34.942Z,30.3270
2024-04-16T01:36:45.982Z,30.3100
2024-04-16T01:36:57.014Z,30.3220
2024-04-16T01:37:08.080Z,30.2990
2024-04-16T01:37:19.164Z,30.3100
2024-04-16T01:37:30.428Z,30.3100
2024-04-16T01:37:41.593Z,30.3270
2024-04-16T01:37:52.605Z,30.3270
2024-04-16T01:38:03.643Z,30.3220
2024-04-16T01:38:14.692Z,30.3220
2024-04-16T01:38:25.714Z,30.3150
2024-04-16T01:38:36.770Z,30.3150
2024-04-16T01:38:47.850Z,30.3220
2024-04-16T01:38:58.918Z,30.3220
2024-04-16T01:39:09.928Z,30.3390
2024-04-16T01:39:21.001Z,30.3330
2024-04-16T01:39:33.101Z,30.3270
2024-04-16T01:39:45.438Z,30.4050
2024-04-16T01:39:56.480Z,30.3760
2024-04-16T01:40:07.548Z,30.3600
2024-04-16T01:40:18.618Z,30.3490
2024-04-16T01:40:29.685Z,30.3540
2024-04-16T01:40:40.746Z,30.3650
2024-04-16T01:40:51.787Z,30.3600
2024-04-16T01:41:02.890Z,30.3600
2024-04-16T01:41:13.928Z,30.3540
2024-04-16T01:41:24.959Z,30.3330
2024-04-16T01:41:36.017Z,30.3430
2024-04-16T01:41:47.041Z,30.3330
2024-04-16T01:41:58.077Z,30.3430
2024-04-16T01:42:09.119Z,30.3540
2024-04-16T01:42:20.161Z,30.3540
2024-04-16T01:42:31.203Z,30.3430
2024-04-16T01:42:42.261Z,30.3430
2024-04-16T01:42:53.288Z,30.3430
2024-04-16T01:43:04.419Z,30.3490
2024-04-16T01:43:15.487Z,30.3540
2024-04-16T01:43:26.567Z,30.3430
2024-04-16T01:43:37.635Z,30.3650
2024-04-16T01:43:48.636Z,30.3540
2024-04-16T01:43:59.685Z,30.3650
2024-04-16T01:44:10.743Z,30.3610
2024-04-16T01:44:21.770Z,30.3610
2024-04-16T01:44:32.791Z,30.3560
2024-04-16T01:44:43.843Z,30.3500
2024-04-16T01:44:54.911Z,30.3500
2024-04-16T01:45:05.966Z,30.3390
2024-04-16T01:45:17.001Z,30.3430
2024-04-16T01:45:28.079Z,30.3490
2024-04-16T01:45:39.133Z,30.3600
2024-04-16T01:45:50.171Z,30.3600
2024-04-16T01:46:01.237Z,30.3540
2024-04-16T01:46:12.311Z,30.3710
2024-04-16T01:46:23.401Z,30.3650
2024-04-16T01:46:34.452Z,30.3710
2024-04-16T01:46:45.485Z,30.3710
2024-04-16T01:46:56.568Z,30.3650
2024-04-16T01:47:07.649Z,30.3600
2024-04-16T01:47:18.756Z,30.3650
2024-04-16T01:47:29.935Z,30.3490
2024-04-16T01:47:41.143Z,30.3490
2024-04-16T01:47:52.347Z,30.3490
2024-04-16T01:48:03.574Z,30.3600
2024-04-16T01:48:14.841Z,30.3650
2024-04-16T01:48:26.109Z,30.3600
2024-04-16T01:48:37.233Z,30.3540
2024-04-16T01:48:48.323Z,30.3650
2024-04-16T01:49:02.223Z,30.3650
2024-04-16T01:49:14.095Z,30.4430
2024-04-16T01:49:25.186Z,30.3960
2024-04-16T01:49:36.320Z,30.3760
2024-04-16T01:49:47.351Z,30.3650
2024-04-16T01:49:58.416Z,30.3650
2024-04-16T01:50:09.444Z,30.3540
2024-04-16T01:50:20.485Z,30.3540
2024-04-16T01:50:31.515Z,30.3600
2024-04-16T01:50:42.559Z,30.3600
2024-04-16T01:50:53.606Z,30.3490
2024-04-16T01:51:04.675Z,30.3530
2024-04-16T01:51:15.690Z,30.3470
2024-04-16T01:51:26.755Z,30.3640
2024-04-16T01:51:37.810Z,30.3690
2024-04-16T01:51:48.852Z,30.3580
2024-04-16T01:51:59.871Z,30.3640
2024-04-16T01:52:11.003Z,30.3650
2024-04-16T01:52:22.062Z,30.3540
2024-04-16T01:52:33.175Z,30.3490
2024-04-16T01:52:44.311Z,30.3490
2024-04-16T01:52:55.358Z,30.3410
2024-04-16T01:53:06.406Z,30.3580
2024-04-16T01:53:17.433Z,30.3470
2024-04-16T01:53:28.482Z,30.3540
2024-04-16T01:53:39.517Z,30.3430
2024-04-16T01:53:50.555Z,30.3380
2024-04-16T01:54:01.636Z,30.3330
2024-04-16T01:54:12.682Z,30.3650
2024-04-16T01:54:23.775Z,30.3490
2024-04-16T01:54:34.787Z,30.3330
2024-04-16T01:54:45.830Z,30.3270
2024-04-16T01:54:56.910Z,30.3220
2024-04-16T01:55:07.966Z,30.3270
2024-04-16T01:55:19.054Z,30.3330
2024-04-16T01:55:30.092Z,30.3270
2024-04-16T01:55:41.143Z,30.3330
2024-04-16T01:55:52.158Z,30.3330
2024-04-16T01:56:03.196Z,30.3330
2024-04-16T01:56:14.273Z,30.3350
2024-04-16T01:56:25.301Z,30.3470
2024-04-16T01:56:36.362Z,30.3580
2024-04-16T01:56:47.408Z,30.3410
2024-04-16T01:56:58.428Z,30.3410
2024-04-16T01:57:09.480Z,30.3410
2024-04-16T01:57:20.530Z,30.3410
2024-04-16T01:57:31.581Z,30.3410
2024-04-16T01:57:42.655Z,30.3470
2024-04-16T01:57:53.686Z,30.3410
2024-04-16T01:58:04.754Z,30.3470
2024-04-16T01:58:15.839Z,30.3470
2024-04-16T01:58:26.944Z,30.3300
2024-04-16T01:58:38.049Z,30.3350
2024-04-16T01:58:49.095Z,30.3410
2024-04-16T01:59:00.249Z,30.3350
2024-04-16T01:59:11.304Z,30.3410
2024-04-16T01:59:22.361Z,30.3300
2024-04-16T01:59:33.405Z,30.3080
2024-04-16T01:59:44.480Z,30.3080
2024-04-16T01:59:55.528Z,30.3240
2024-04-16T02:00:06.583Z,30.3080
2024-04-16T02:00:17.562Z,30.3190
2024-04-16T02:00:28.620Z,30.3080
2024-04-16T02:00:39.720Z,30.3130
2024-04-16T02:00:50.741Z,30.3130
2024-04-16T02:01:02.040Z,30.3080
2024-04-16T02:01:13.518Z,30.3240
2024-04-16T02:01:24.635Z,30.3130
2024-04-16T02:01:35.747Z,30.3350
2024-04-16T02:01:46.840Z,30.3130
2024-04-16T02:01:57.916Z,30.3190
2024-04-16T02:02:08.991Z,30.3130
2024-04-16T02:02:19.996Z,30.3190
2024-04-16T02:02:31.024Z,30.3080
2024-04-16T02:02:42.129Z,30.3190
2024-04-16T02:02:53.184Z,30.3240
2024-04-16T02:03:04.303Z,30.3240
2024-04-16T02:03:15.477Z,30.3190
2024-04-16T02:03:26.566Z,30.3240
2024-04-16T02:03:37.636Z,30.3190
2024-04-16T02:03:48.683Z,30.3240
2024-04-16T02:03:59.803Z,30.3300
2024-04-16T02:04:10.989Z,30.3190
2024-04-16T02:04:22.087Z,30.3240
2024-04-16T02:04:33.258Z,30.3190
2024-04-16T02:04:44.470Z,30.3240
2024-04-16T02:04:55.552Z,30.3190
2024-04-16T02:05:06.675Z,30.3030
2024-04-16T02:05:17.746Z,30.3130
2024-04-16T02:05:28.798Z,30.3130
2024-04-16T02:05:39.843Z,30.3030
2024-04-16T02:05:50.877Z,30.2810
2024-04-16T02:06:01.931Z,30.2920
2024-04-16T02:06:12.948Z,30.2860
2024-04-16T02:06:23.954Z,30.3030
2024-04-16T02:06:34.983Z,30.3080
2024-04-16T02:06:46.114Z,30.2860
2024-04-16T02:06:57.155Z,30.2970
2024-04-16T02:07:08.203Z,30.3030
2024-04-16T02:07:19.303Z,30.3030
2024-04-16T02:07:30.440Z,30.3190
2024-04-16T02:07:41.516Z,30.2920
2024-04-16T02:07:52.546Z,30.2920
2024-04-16T02:08:03.579Z,30.2970
2024-04-16T02:08:14.621Z,30.2810
2024-04-16T02:08:26.090Z,30.2860
2024-04-16T02:08:37.120Z,30.2970
2024-04-16T02:08:48.176Z,30.2920
2024-04-16T02:08:59.224Z,30.2920
2024-04-16T02:09:10.253Z,30.2700
2024-04-16T02:09:21.308Z,30.2810
2024-04-16T02:09:32.342Z,30.2700
2024-04-16T02:09:43.376Z,30.2700
2024-04-16T02:09:54.422Z,30.2580
2024-04-16T02:10:05.503Z,30.2520
2024-04-16T02:10:16.630Z,30.2700
2024-04-16T02:10:27.702Z,30.2750
2024-04-16T02:10:38.795Z,30.2700
2024-04-16T02:10:49.882Z,30.2810
2024-04-16T02:11:00.961Z,30.2860
2024-04-16T02:11:12.006Z,30.2750
2024-04-16T02:11:23.045Z,30.2520
2024-04-16T02:11:34.096Z,30.2580
2024-04-16T02:11:45.186Z,30.2700
2024-04-16T02:11:56.366Z,30.2700
2024-04-16T02:12:07.497Z,30.2810
2024-04-16T02:12:18.630Z,30.2630
2024-04-16T02:12:29.702Z,30.2810
2024-04-16T02:12:40.749Z,30.2520
2024-04-16T02:12:51.806Z,30.2470
2024-04-16T02:13:02.925Z,30.2360
2024-04-16T02:13:13.982Z,30.2310
2024-04-16T02:13:25.055Z,30.2360
2024-04-16T02:13:36.191Z,30.2250
2024-04-16T02:13:47.295Z,30.2310
2024-04-16T02:13:58.332Z,30.2360
2024-04-16T02:14:09.368Z,30.2250